Ever Deluxe — 9V7953 — position and weather

sailwx.info

Track history (hours):
 
Tides and Currents Weather Stations Pressure Air Temp Water Temp Dewpoint Dewpoint Depression Visibility Wind Speed Wind Dir Waves Ship Positions

Ever Deluxe

Last reported at 2017-Nov-27 14:36 UTC. Time now 2017-Dec-18 03:23 UTC.
Position S 33°43' E 017°53'.
Warning: this ship's position is 20 days out of date.

Length 295 m; draft 12.1 m.

Type: Ship (hazmat cat D). MMSI: 564621000.

Date/timePositionNaut miles runAvg speedWind from/ knotsBaromVisibWave heightAir tempDewpointWater temp
2017-Nov-27 14:36S 33°43' E 017°53'0 1.7
2017-Nov-27 14:25S 33°43' E 017°53'1 1.8
2017-Nov-27 13:59S 33°44' E 017°52'1 1.9
2017-Nov-27 13:30S 33°45' E 017°52'1 2.0
2017-Nov-27 12:48S 33°46' E 017°51'3 1.4
2017-Nov-27 10:32S 33°47' E 017°55'2 9.3
2017-Nov-27 10:17S 33°45' E 017°57'5 7.8
2017-Nov-27 09:41S 33°42' E 018°02'0 1.4
2017-Nov-27 09:27S 33°43' E 018°02'1 1.5
2017-Nov-27 08:30S 33°44' E 018°01'1 1.2
2017-Nov-27 07:49S 33°44' E 018°00'1 1.4
2017-Nov-27 07:25S 33°45' E 017°60'1 1.4
2017-Nov-27 07:00S 33°45' E 017°59'1 1.2
2017-Nov-27 06:30S 33°46' E 017°59'1 1.1
2017-Nov-27 06:00S 33°46' E 017°59'1 1.4
2017-Nov-27 05:30S 33°47' E 017°58'1 1.7
2017-Nov-27 05:00S 33°48' E 017°58'1 1.7
2017-Nov-27 04:30S 33°48' E 017°58'68213.5
2017-Nov-25 02:00S 30°30' E 030°48'815.0
2017-Nov-25 01:30S 30°23' E 030°52'815.8
2017-Nov-25 01:01S 30°16' E 030°56'816.0
2017-Nov-25 00:31S 30°09' E 031°00'816.1
2017-Nov-25 00:00S 30°01' E 031°04'713.9
2017-Nov-24 23:30S 29°55' E 031°07'4 8.2
2017-Nov-24 23:00S 29°51' E 031°05'3 6.8
2017-Nov-24 22:30S 29°53' E 031°02'0 0.8
2017-Nov-24 21:59S 29°53' E 031°02'0 0.1
2017-Nov-24 21:29S 29°53' E 031°02'0 0.0
2017-Nov-24 20:59S 29°53' E 031°02'0 0.0
2017-Nov-24 20:29S 29°53' E 031°02'0 0.0
2017-Nov-24 19:59S 29°53' E 031°02'0 0.0
2017-Nov-24 19:29S 29°53' E 031°02'0 0.0
2017-Nov-24 18:59S 29°53' E 031°02'0 0.0
2017-Nov-24 18:29S 29°53' E 031°02'0 0.0
2017-Nov-24 17:59S 29°53' E 031°02'0 0.0
2017-Nov-24 17:29S 29°53' E 031°02'0 0.0
2017-Nov-24 16:59S 29°53' E 031°02'0 0.0
2017-Nov-24 16:26S 29°53' E 031°02'0 0.0
2017-Nov-24 15:59S 29°53' E 031°02'0 0.0
2017-Nov-24 15:29S 29°53' E 031°02'0 0.0
2017-Nov-24 14:59S 29°53' E 031°02'0 0.0
2017-Nov-24 14:29S 29°53' E 031°02'0 0.0
2017-Nov-24 13:59S 29°53' E 031°02'0 0.0
2017-Nov-24 13:29S 29°53' E 031°02'0 0.0
2017-Nov-24 12:59S 29°53' E 031°02'0 0.0
2017-Nov-24 12:29S 29°53' E 031°02'0 0.0
2017-Nov-24 11:56S 29°53' E 031°02'0 0.0
2017-Nov-24 11:29S 29°53' E 031°02'0 0.0
2017-Nov-24 10:56S 29°53' E 031°02'0 0.0
2017-Nov-24 10:29S 29°53' E 031°02'0 0.0
2017-Nov-24 09:59S 29°53' E 031°02'0 0.0
2017-Nov-24 09:29S 29°53' E 031°02'0 0.0
2017-Nov-24 08:59S 29°53' E 031°02'0 0.0
2017-Nov-24 08:29S 29°53' E 031°02'0 0.0
2017-Nov-24 07:59S 29°53' E 031°02'0 0.0
2017-Nov-24 07:29S 29°53' E 031°02'0 0.0
2017-Nov-24 06:59S 29°53' E 031°02'0 0.0
2017-Nov-24 06:29S 29°53' E 031°02'0 0.0
2017-Nov-24 05:59S 29°53' E 031°02'0 0.0
2017-Nov-24 05:29S 29°53' E 031°02'0 0.0
2017-Nov-24 04:59S 29°53' E 031°02'0 0.0
2017-Nov-24 04:29S 29°53' E 031°02'0 0.0
2017-Nov-24 03:59S 29°53' E 031°02'0 0.0
2017-Nov-24 03:29S 29°53' E 031°02'0 0.0
2017-Nov-24 02:59S 29°53' E 031°02'0 0.0
2017-Nov-24 02:29S 29°53' E 031°02'0 0.0
2017-Nov-24 01:59S 29°53' E 031°02'0 0.0
2017-Nov-24 01:29S 29°53' E 031°02'0 0.0
2017-Nov-24 00:59S 29°53' E 031°02'0 0.0
2017-Nov-24 00:29S 29°53' E 031°02'0 0.0
2017-Nov-23 23:59S 29°53' E 031°02'0 0.0
2017-Nov-23 23:29S 29°53' E 031°02'0 0.0
2017-Nov-23 22:59S 29°53' E 031°02'0 0.0
2017-Nov-23 22:29S 29°53' E 031°02'0 0.0
2017-Nov-23 21:59S 29°53' E 031°02'0 0.0
2017-Nov-23 21:29S 29°53' E 031°02'0 0.0
2017-Nov-23 20:59S 29°53' E 031°02'0 0.0
2017-Nov-23 20:29S 29°53' E 031°02'0 0.0
2017-Nov-23 19:59S 29°53' E 031°02'0 0.0
2017-Nov-23 19:29S 29°53' E 031°02'0 0.0
2017-Nov-23 18:59S 29°53' E 031°02'0 0.0
2017-Nov-23 18:29S 29°53' E 031°02'0 0.0
2017-Nov-23 17:56S 29°53' E 031°02'0 0.0
2017-Nov-23 17:29S 29°53' E 031°02'0 0.0
2017-Nov-23 16:59S 29°53' E 031°02'0 0.0
2017-Nov-23 16:29S 29°53' E 031°02'0 0.0
2017-Nov-23 15:59S 29°53' E 031°02'0 0.0
2017-Nov-23 15:29S 29°53' E 031°02'0 0.0
2017-Nov-23 14:59S 29°53' E 031°02'0 0.0
2017-Nov-23 14:23S 29°53' E 031°02'0 0.0
2017-Nov-23 13:59S 29°53' E 031°02'0 0.0
2017-Nov-23 12:53S 29°53' E 031°02'0 0.0
2017-Nov-23 12:29S 29°53' E 031°02'0 0.0
2017-Nov-23 11:59S 29°53' E 031°02'0 0.0
2017-Nov-23 11:29S 29°53' E 031°02'0 0.0
2017-Nov-23 10:59S 29°53' E 031°02'0 0.0
2017-Nov-23 10:29S 29°53' E 031°02'0 0.0
2017-Nov-23 09:59S 29°53' E 031°02'0 0.0
2017-Nov-23 09:26S 29°53' E 031°02'0 0.0
2017-Nov-23 08:59S 29°53' E 031°02'0 0.0
2017-Nov-23 08:29S 29°53' E 031°02'0 0.0
2017-Nov-23 07:59S 29°53' E 031°02'0 0.0
2017-Nov-23 07:29S 29°53' E 031°02'0 0.0
2017-Nov-23 06:59S 29°53' E 031°02'0 0.0
2017-Nov-23 06:29S 29°53' E 031°02'0 0.0
2017-Nov-23 05:59S 29°53' E 031°02'0 0.0
2017-Nov-23 05:29S 29°53' E 031°02'0 0.0
2017-Nov-23 04:56S 29°53' E 031°02'0 0.0
2017-Nov-23 04:29S 29°53' E 031°02'0 0.0
2017-Nov-23 03:59S 29°53' E 031°02'0 0.0
2017-Nov-23 03:29S 29°53' E 031°02'0 0.0
2017-Nov-23 02:59S 29°53' E 031°02'0 0.0
2017-Nov-23 02:29S 29°53' E 031°02'0 0.0
2017-Nov-23 01:59S 29°53' E 031°02'0 0.0
2017-Nov-23 01:29S 29°53' E 031°02'0 0.0
2017-Nov-23 00:56S 29°53' E 031°02'0 0.0
2017-Nov-23 00:29S 29°53' E 031°02'0 0.0
2017-Nov-22 23:56S 29°53' E 031°02'0 0.0
2017-Nov-22 23:29S 29°53' E 031°02'0 0.0
2017-Nov-22 22:56S 29°53' E 031°02'0 0.0
2017-Nov-22 22:29S 29°53' E 031°02'0 0.0
2017-Nov-22 21:59S 29°53' E 031°02'0 0.0
2017-Nov-22 21:29S 29°53' E 031°02'0 0.0
2017-Nov-22 20:59S 29°53' E 031°02'0 0.0
2017-Nov-22 20:29S 29°53' E 031°02'0 0.0
2017-Nov-22 19:56S 29°53' E 031°02'0 0.0
2017-Nov-22 19:29S 29°53' E 031°02'  
2017-Nov-20 00:28S 29°41' E 031°14'0 0.0
2017-Nov-19 23:58S 29°41' E 031°14'0 0.1
2017-Nov-19 23:25S 29°41' E 031°14'0 0.1
2017-Nov-19 22:55S 29°41' E 031°14'0 0.1
2017-Nov-19 22:28S 29°41' E 031°14'0 0.0
2017-Nov-19 21:58S 29°41' E 031°14'0 0.1
2017-Nov-19 21:28S 29°41' E 031°14'0 0.0
2017-Nov-19 20:58S 29°41' E 031°14'0 0.1
2017-Nov-19 20:28S 29°41' E 031°14'0 0.0
2017-Nov-19 19:58S 29°41' E 031°14'0 0.0
2017-Nov-19 19:28S 29°41' E 031°14'0 0.0
2017-Nov-19 18:58S 29°41' E 031°14'0 0.0
2017-Nov-19 18:28S 29°41' E 031°14'0 0.0
2017-Nov-19 17:49S 29°41' E 031°14'0 0.0
2017-Nov-19 17:28S 29°41' E 031°14'0 0.0
2017-Nov-19 16:58S 29°41' E 031°14'0 0.0
2017-Nov-19 16:28S 29°41' E 031°14'0 0.0
2017-Nov-19 15:58S 29°41' E 031°14'0 0.0
2017-Nov-19 15:28S 29°41' E 031°14'0 0.0
2017-Nov-19 14:55S 29°41' E 031°14'0 0.0
2017-Nov-19 14:28S 29°41' E 031°14'0 0.0
2017-Nov-19 13:58S 29°41' E 031°14'0 0.0
2017-Nov-19 13:28S 29°41' E 031°14'0 0.0
2017-Nov-19 12:58S 29°41' E 031°14'0 0.0
2017-Nov-19 12:28S 29°41' E 031°14'0 0.0
2017-Nov-19 11:55S 29°41' E 031°14'0 0.0
2017-Nov-19 11:28S 29°41' E 031°14'0 0.0
2017-Nov-19 10:58S 29°41' E 031°14'0 0.0
2017-Nov-19 10:25S 29°41' E 031°14'0 0.0
2017-Nov-19 09:58S 29°41' E 031°14'0 0.0
2017-Nov-19 09:28S 29°41' E 031°14'0 0.0
2017-Nov-19 08:58S 29°41' E 031°14'0 0.0
2017-Nov-19 08:28S 29°41' E 031°14'0 0.0
2017-Nov-19 07:55S 29°41' E 031°14'0 0.0
2017-Nov-19 07:28S 29°41' E 031°14'0 0.0
2017-Nov-19 06:58S 29°41' E 031°14'0 0.0
2017-Nov-19 06:22S 29°41' E 031°14'0 0.0
2017-Nov-19 05:55S 29°41' E 031°14'0 0.0
2017-Nov-19 05:25S 29°41' E 031°14'0 0.0
2017-Nov-19 04:55S 29°41' E 031°14'0 0.0
2017-Nov-19 04:28S 29°41' E 031°14'0 0.0
2017-Nov-19 03:55S 29°41' E 031°14'0 0.0
2017-Nov-19 03:28S 29°41' E 031°14'0 0.0
2017-Nov-19 02:58S 29°41' E 031°14'0 0.0
2017-Nov-19 02:28S 29°41' E 031°14'0 0.0
2017-Nov-19 01:58S 29°41' E 031°14'0 0.0
2017-Nov-19 01:28S 29°41' E 031°14'0 0.1
2017-Nov-19 00:55S 29°41' E 031°13'0 0.1
2017-Nov-19 00:28S 29°41' E 031°14'0 0.0
2017-Nov-18 23:58S 29°41' E 031°14'0 0.0
2017-Nov-18 23:28S 29°41' E 031°14'0 0.1
2017-Nov-18 22:58S 29°41' E 031°13'0 0.0
2017-Nov-18 22:28S 29°41' E 031°13'0 0.0
2017-Nov-18 21:58S 29°41' E 031°13'0 0.1
2017-Nov-18 21:28S 29°41' E 031°13'0 0.0
2017-Nov-18 20:58S 29°41' E 031°14'0 0.0
2017-Nov-18 20:28S 29°41' E 031°14'0 0.0
2017-Nov-18 19:58S 29°41' E 031°14'0 0.0
2017-Nov-18 19:28S 29°41' E 031°14'0 0.1
2017-Nov-18 18:58S 29°41' E 031°14'0 0.0
2017-Nov-18 18:25S 29°41' E 031°14'0 0.0
2017-Nov-18 17:52S 29°41' E 031°14'0 0.0
2017-Nov-18 17:28S 29°41' E 031°14'0 0.0
2017-Nov-18 16:58S 29°41' E 031°14'0 0.0
2017-Nov-18 16:28S 29°41' E 031°14'  
Track history (hours):
 
Tides and Currents Weather Stations Pressure Air Temp Water Temp Dewpoint Dewpoint Depression Visibility Wind Speed Wind Dir Waves Ship Positions

Ever Deluxe

Last reported at 2017-Nov-27 14:36 UTC. Time now 2017-Dec-18 03:23 UTC.
Position S 33°43' E 017°53'.
Warning: this ship's position is 20 days out of date.

Length 295 m; draft 12.1 m.

Type: Ship (hazmat cat D). MMSI: 564621000.

Date/timePositionNaut miles runAvg speedWind from/ knotsBaromVisibWave heightAir tempDewpointWater temp
2017-Nov-27 14:36S 33°43' E 017°53'0 1.7
2017-Nov-27 14:25S 33°43' E 017°53'1 1.8
2017-Nov-27 13:59S 33°44' E 017°52'1 1.9
2017-Nov-27 13:30S 33°45' E 017°52'1 2.0
2017-Nov-27 12:48S 33°46' E 017°51'3 1.4
2017-Nov-27 10:32S 33°47' E 017°55'2 9.3
2017-Nov-27 10:17S 33°45' E 017°57'5 7.8
2017-Nov-27 09:41S 33°42' E 018°02'0 1.4
2017-Nov-27 09:27S 33°43' E 018°02'1 1.5
2017-Nov-27 08:30S 33°44' E 018°01'1 1.2
2017-Nov-27 07:49S 33°44' E 018°00'1 1.4
2017-Nov-27 07:25S 33°45' E 017°60'1 1.4
2017-Nov-27 07:00S 33°45' E 017°59'1 1.2
2017-Nov-27 06:30S 33°46' E 017°59'1 1.1
2017-Nov-27 06:00S 33°46' E 017°59'1 1.4
2017-Nov-27 05:30S 33°47' E 017°58'1 1.7
2017-Nov-27 05:00S 33°48' E 017°58'1 1.7
2017-Nov-27 04:30S 33°48' E 017°58'68213.5
2017-Nov-25 02:00S 30°30' E 030°48'815.0
2017-Nov-25 01:30S 30°23' E 030°52'815.8
2017-Nov-25 01:01S 30°16' E 030°56'816.0
2017-Nov-25 00:31S 30°09' E 031°00'816.1
2017-Nov-25 00:00S 30°01' E 031°04'713.9
2017-Nov-24 23:30S 29°55' E 031°07'4 8.2
2017-Nov-24 23:00S 29°51' E 031°05'3 6.8
2017-Nov-24 22:30S 29°53' E 031°02'0 0.8
2017-Nov-24 21:59S 29°53' E 031°02'0 0.1
2017-Nov-24 21:29S 29°53' E 031°02'0 0.0
2017-Nov-24 20:59S 29°53' E 031°02'0 0.0
2017-Nov-24 20:29S 29°53' E 031°02'0 0.0
2017-Nov-24 19:59S 29°53' E 031°02'0 0.0
2017-Nov-24 19:29S 29°53' E 031°02'0 0.0
2017-Nov-24 18:59S 29°53' E 031°02'0 0.0
2017-Nov-24 18:29S 29°53' E 031°02'0 0.0
2017-Nov-24 17:59S 29°53' E 031°02'0 0.0
2017-Nov-24 17:29S 29°53' E 031°02'0 0.0
2017-Nov-24 16:59S 29°53' E 031°02'0 0.0
2017-Nov-24 16:26S 29°53' E 031°02'0 0.0
2017-Nov-24 15:59S 29°53' E 031°02'0 0.0
2017-Nov-24 15:29S 29°53' E 031°02'0 0.0
2017-Nov-24 14:59S 29°53' E 031°02'0 0.0
2017-Nov-24 14:29S 29°53' E 031°02'0 0.0
2017-Nov-24 13:59S 29°53' E 031°02'0 0.0
2017-Nov-24 13:29S 29°53' E 031°02'0 0.0
2017-Nov-24 12:59S 29°53' E 031°02'0 0.0
2017-Nov-24 12:29S 29°53' E 031°02'0 0.0
2017-Nov-24 11:56S 29°53' E 031°02'0 0.0
2017-Nov-24 11:29S 29°53' E 031°02'0 0.0
2017-Nov-24 10:56S 29°53' E 031°02'0 0.0
2017-Nov-24 10:29S 29°53' E 031°02'0 0.0
2017-Nov-24 09:59S 29°53' E 031°02'0 0.0
2017-Nov-24 09:29S 29°53' E 031°02'0 0.0
2017-Nov-24 08:59S 29°53' E 031°02'0 0.0
2017-Nov-24 08:29S 29°53' E 031°02'0 0.0
2017-Nov-24 07:59S 29°53' E 031°02'0 0.0
2017-Nov-24 07:29S 29°53' E 031°02'0 0.0
2017-Nov-24 06:59S 29°53' E 031°02'0 0.0
2017-Nov-24 06:29S 29°53' E 031°02'0 0.0
2017-Nov-24 05:59S 29°53' E 031°02'0 0.0
2017-Nov-24 05:29S 29°53' E 031°02'0 0.0
2017-Nov-24 04:59S 29°53' E 031°02'0 0.0
2017-Nov-24 04:29S 29°53' E 031°02'0 0.0
2017-Nov-24 03:59S 29°53' E 031°02'0 0.0
2017-Nov-24 03:29S 29°53' E 031°02'0 0.0
2017-Nov-24 02:59S 29°53' E 031°02'0 0.0
2017-Nov-24 02:29S 29°53' E 031°02'0 0.0
2017-Nov-24 01:59S 29°53' E 031°02'0 0.0
2017-Nov-24 01:29S 29°53' E 031°02'0 0.0
2017-Nov-24 00:59S 29°53' E 031°02'0 0.0
2017-Nov-24 00:29S 29°53' E 031°02'0 0.0
2017-Nov-23 23:59S 29°53' E 031°02'0 0.0
2017-Nov-23 23:29S 29°53' E 031°02'0 0.0
2017-Nov-23 22:59S 29°53' E 031°02'0 0.0
2017-Nov-23 22:29S 29°53' E 031°02'0 0.0
2017-Nov-23 21:59S 29°53' E 031°02'0 0.0
2017-Nov-23 21:29S 29°53' E 031°02'0 0.0
2017-Nov-23 20:59S 29°53' E 031°02'0 0.0
2017-Nov-23 20:29S 29°53' E 031°02'0 0.0
2017-Nov-23 19:59S 29°53' E 031°02'0 0.0
2017-Nov-23 19:29S 29°53' E 031°02'0 0.0
2017-Nov-23 18:59S 29°53' E 031°02'0 0.0
2017-Nov-23 18:29S 29°53' E 031°02'0 0.0
2017-Nov-23 17:56S 29°53' E 031°02'0 0.0
2017-Nov-23 17:29S 29°53' E 031°02'0 0.0
2017-Nov-23 16:59S 29°53' E 031°02'0 0.0
2017-Nov-23 16:29S 29°53' E 031°02'0 0.0
2017-Nov-23 15:59S 29°53' E 031°02'0 0.0
2017-Nov-23 15:29S 29°53' E 031°02'0 0.0
2017-Nov-23 14:59S 29°53' E 031°02'0 0.0
2017-Nov-23 14:23S 29°53' E 031°02'0 0.0
2017-Nov-23 13:59S 29°53' E 031°02'0 0.0
2017-Nov-23 12:53S 29°53' E 031°02'0 0.0
2017-Nov-23 12:29S 29°53' E 031°02'0 0.0
2017-Nov-23 11:59S 29°53' E 031°02'0 0.0
2017-Nov-23 11:29S 29°53' E 031°02'0 0.0
2017-Nov-23 10:59S 29°53' E 031°02'0 0.0
2017-Nov-23 10:29S 29°53' E 031°02'0 0.0
2017-Nov-23 09:59S 29°53' E 031°02'0 0.0
2017-Nov-23 09:26S 29°53' E 031°02'0 0.0
2017-Nov-23 08:59S 29°53' E 031°02'0 0.0
2017-Nov-23 08:29S 29°53' E 031°02'0 0.0
2017-Nov-23 07:59S 29°53' E 031°02'0 0.0
2017-Nov-23 07:29S 29°53' E 031°02'0 0.0
2017-Nov-23 06:59S 29°53' E 031°02'0 0.0
2017-Nov-23 06:29S 29°53' E 031°02'0 0.0
2017-Nov-23 05:59S 29°53' E 031°02'0 0.0
2017-Nov-23 05:29S 29°53' E 031°02'0 0.0
2017-Nov-23 04:56S 29°53' E 031°02'0 0.0
2017-Nov-23 04:29S 29°53' E 031°02'0 0.0
2017-Nov-23 03:59S 29°53' E 031°02'0 0.0
2017-Nov-23 03:29S 29°53' E 031°02'0 0.0
2017-Nov-23 02:59S 29°53' E 031°02'0 0.0
2017-Nov-23 02:29S 29°53' E 031°02'0 0.0
2017-Nov-23 01:59S 29°53' E 031°02'0 0.0
2017-Nov-23 01:29S 29°53' E 031°02'0 0.0
2017-Nov-23 00:56S 29°53' E 031°02'0 0.0
2017-Nov-23 00:29S 29°53' E 031°02'0 0.0
2017-Nov-22 23:56S 29°53' E 031°02'0 0.0
2017-Nov-22 23:29S 29°53' E 031°02'0 0.0
2017-Nov-22 22:56S 29°53' E 031°02'0 0.0
2017-Nov-22 22:29S 29°53' E 031°02'0 0.0
2017-Nov-22 21:59S 29°53' E 031°02'0 0.0
2017-Nov-22 21:29S 29°53' E 031°02'0 0.0
2017-Nov-22 20:59S 29°53' E 031°02'0 0.0
2017-Nov-22 20:29S 29°53' E 031°02'0 0.0
2017-Nov-22 19:56S 29°53' E 031°02'0 0.0
2017-Nov-22 19:29S 29°53' E 031°02'  
2017-Nov-20 00:28S 29°41' E 031°14'0 0.0
2017-Nov-19 23:58S 29°41' E 031°14'0 0.1
2017-Nov-19 23:25S 29°41' E 031°14'0 0.1
2017-Nov-19 22:55S 29°41' E 031°14'0 0.1
2017-Nov-19 22:28S 29°41' E 031°14'0 0.0
2017-Nov-19 21:58S 29°41' E 031°14'0 0.1
2017-Nov-19 21:28S 29°41' E 031°14'0 0.0
2017-Nov-19 20:58S 29°41' E 031°14'0 0.1
2017-Nov-19 20:28S 29°41' E 031°14'0 0.0
2017-Nov-19 19:58S 29°41' E 031°14'0 0.0
2017-Nov-19 19:28S 29°41' E 031°14'0 0.0
2017-Nov-19 18:58S 29°41' E 031°14'0 0.0
2017-Nov-19 18:28S 29°41' E 031°14'0 0.0
2017-Nov-19 17:49S 29°41' E 031°14'0 0.0
2017-Nov-19 17:28S 29°41' E 031°14'0 0.0
2017-Nov-19 16:58S 29°41' E 031°14'0 0.0
2017-Nov-19 16:28S 29°41' E 031°14'0 0.0
2017-Nov-19 15:58S 29°41' E 031°14'0 0.0
2017-Nov-19 15:28S 29°41' E 031°14'0 0.0
2017-Nov-19 14:55S 29°41' E 031°14'0 0.0
2017-Nov-19 14:28S 29°41' E 031°14'0 0.0
2017-Nov-19 13:58S 29°41' E 031°14'0 0.0
2017-Nov-19 13:28S 29°41' E 031°14'0 0.0
2017-Nov-19 12:58S 29°41' E 031°14'0 0.0
2017-Nov-19 12:28S 29°41' E 031°14'0 0.0
2017-Nov-19 11:55S 29°41' E 031°14'0 0.0
2017-Nov-19 11:28S 29°41' E 031°14'0 0.0
2017-Nov-19 10:58S 29°41' E 031°14'0 0.0
2017-Nov-19 10:25S 29°41' E 031°14'0 0.0
2017-Nov-19 09:58S 29°41' E 031°14'0 0.0
2017-Nov-19 09:28S 29°41' E 031°14'0 0.0
2017-Nov-19 08:58S 29°41' E 031°14'0 0.0
2017-Nov-19 08:28S 29°41' E 031°14'0 0.0
2017-Nov-19 07:55S 29°41' E 031°14'0 0.0
2017-Nov-19 07:28S 29°41' E 031°14'0 0.0
2017-Nov-19 06:58S 29°41' E 031°14'0 0.0
2017-Nov-19 06:22S 29°41' E 031°14'0 0.0
2017-Nov-19 05:55S 29°41' E 031°14'0 0.0
2017-Nov-19 05:25S 29°41' E 031°14'0 0.0
2017-Nov-19 04:55S 29°41' E 031°14'0 0.0
2017-Nov-19 04:28S 29°41' E 031°14'0 0.0
2017-Nov-19 03:55S 29°41' E 031°14'0 0.0
2017-Nov-19 03:28S 29°41' E 031°14'0 0.0
2017-Nov-19 02:58S 29°41' E 031°14'0 0.0
2017-Nov-19 02:28S 29°41' E 031°14'0 0.0
2017-Nov-19 01:58S 29°41' E 031°14'0 0.0
2017-Nov-19 01:28S 29°41' E 031°14'0 0.1
2017-Nov-19 00:55S 29°41' E 031°13'0 0.1
2017-Nov-19 00:28S 29°41' E 031°14'0 0.0
2017-Nov-18 23:58S 29°41' E 031°14'0 0.0
2017-Nov-18 23:28S 29°41' E 031°14'0 0.1
2017-Nov-18 22:58S 29°41' E 031°13'0 0.0
2017-Nov-18 22:28S 29°41' E 031°13'0 0.0
2017-Nov-18 21:58S 29°41' E 031°13'0 0.1
2017-Nov-18 21:28S 29°41' E 031°13'0 0.0
2017-Nov-18 20:58S 29°41' E 031°14'0 0.0
2017-Nov-18 20:28S 29°41' E 031°14'0 0.0
2017-Nov-18 19:58S 29°41' E 031°14'0 0.0
2017-Nov-18 19:28S 29°41' E 031°14'0 0.1
2017-Nov-18 18:58S 29°41' E 031°14'0 0.0
2017-Nov-18 18:25S 29°41' E 031°14'0 0.0
2017-Nov-18 17:52S 29°41' E 031°14'0 0.0
2017-Nov-18 17:28S 29°41' E 031°14'0 0.0
2017-Nov-18 16:58S 29°41' E 031°14'0 0.0
2017-Nov-18 16:28S 29°41' E 031°14'  

Dump ship's entire track history